地図

経路データ

SID SEASON NUMBER BASIN SUBBASIN NAME ISO_TIME NATURE LAT LON WMO_WIND WMO_PRES WMO_AGENCY TRACK_TYPE DIST2LAND LANDFALL IFLAG USA_AGENCY USA_ATCF_ID USA_LAT USA_LON USA_RECORD USA_STATUS USA_WIND USA_PRES USA_SSHS USA_R34_NE USA_R34_SE USA_R34_SW USA_R34_NW USA_R50_NE USA_R50_SE USA_R50_SW USA_R50_NW USA_R64_NE USA_R64_SE USA_R64_SW USA_R64_NW USA_POCI USA_ROCI USA_RMW USA_EYE TOKYO_LAT TOKYO_LON TOKYO_GRADE TOKYO_WIND TOKYO_PRES TOKYO_R50_DIR TOKYO_R50_LONG TOKYO_R50_SHORT TOKYO_R30_DIR TOKYO_R30_LONG TOKYO_R30_SHORT TOKYO_LAND CMA_LAT CMA_LON CMA_CAT CMA_WIND CMA_PRES HKO_LAT HKO_LON HKO_CAT HKO_WIND HKO_PRES NEWDELHI_LAT NEWDELHI_LON NEWDELHI_GRADE NEWDELHI_WIND NEWDELHI_PRES NEWDELHI_CI NEWDELHI_DP NEWDELHI_POCI REUNION_LAT REUNION_LON REUNION_TYPE REUNION_WIND REUNION_PRES REUNION_TNUM REUNION_CI REUNION_RMW REUNION_R34_NE REUNION_R34_SE REUNION_R34_SW REUNION_R34_NW REUNION_R50_NE REUNION_R50_SE REUNION_R50_SW REUNION_R50_NW REUNION_R64_NE REUNION_R64_SE REUNION_R64_SW REUNION_R64_NW BOM_LAT BOM_LON BOM_TYPE BOM_WIND BOM_PRES BOM_TNUM BOM_CI BOM_RMW BOM_R34_NE BOM_R34_SE BOM_R34_SW BOM_R34_NW BOM_R50_NE BOM_R50_SE BOM_R50_SW BOM_R50_NW BOM_R64_NE BOM_R64_SE BOM_R64_SW BOM_R64_NW BOM_ROCI BOM_POCI BOM_EYE BOM_POS_METHOD BOM_PRES_METHOD NADI_LAT NADI_LON NADI_CAT NADI_WIND NADI_PRES WELLINGTON_LAT WELLINGTON_LON WELLINGTON_WIND WELLINGTON_PRES DS824_LAT DS824_LON DS824_STAGE DS824_WIND DS824_PRES TD9636_LAT TD9636_LON TD9636_STAGE TD9636_WIND TD9636_PRES TD9635_LAT TD9635_LON TD9635_WIND TD9635_PRES TD9635_ROCI NEUMANN_LAT NEUMANN_LON NEUMANN_CLASS NEUMANN_WIND NEUMANN_PRES MLC_LAT MLC_LON MLC_CLASS MLC_WIND MLC_PRES USA_GUST BOM_GUST BOM_GUST_PER REUNION_GUST REUNION_GUST_PER USA_SEAHGT USA_SEARAD_NE USA_SEARAD_SE USA_SEARAD_SW USA_SEARAD_NW STORM_SPEED STORM_DIR
1870324N19317 1870 31 NA NA NOT_NAMED 1870-11-20 06:00:00 TS 18.6000 -43.4000 main 1802 1793 _____________O -1 18.6000 -43.4000 TS 45 2 148
1870324N19317 1870 31 NA NA NOT_NAMED 1870-11-20 09:00:00 TS 18.5174 -43.3402 main 1799 1793 _____________P -1 18.5174 -43.3402 TS 45 0 0
1870324N19317 1870 31 NA NA NOT_NAMED 1870-11-20 12:00:00 TS 18.6000 -43.4000 main 1802 1802 _____________O -1 18.6000 -43.4000 TS 45 5 325
1870324N19317 1870 31 NA NA NOT_NAMED 1870-11-20 15:00:00 TS 18.9476 -43.6547 main 1812 1812 _____________P -1 18.9476 -43.6547 TS 45 10 325
1870324N19317 1870 31 NA NA NOT_NAMED 1870-11-20 18:00:00 TS 19.4000 -44.0000 main 1843 1843 _____________O -1 19.4000 -44.0000 TS 45 10 323
1870324N19317 1870 31 NA NA NOT_NAMED 1870-11-20 21:00:00 TS 19.7499 -44.3002 main 1855 1855 _____________P -1 19.7499 -44.3002 TS 45 9 321
1870324N19317 1870 31 NA NA NOT_NAMED 1870-11-21 00:00:00 TS 20.1000 -44.6000 main 1879 1879 _____________O -1 20.1000 -44.6000 TS 45 9 323
1870324N19317 1870 31 NA NA NOT_NAMED 1870-11-21 03:00:00 TS 20.5000 -44.9075 main 1903 1903 _____________P -1 20.5000 -44.9075 TS 45 10 325
1870324N19317 1870 31 NA NA NOT_NAMED 1870-11-21 06:00:00 TS 20.9000 -45.2000 main 1929 1929 _____________O -1 20.9000 -45.2000 TS 45 9 327
1870324N19317 1870 31 NA NA NOT_NAMED 1870-11-21 09:00:00 TS 21.2497 -45.4206 main 1950 1950 _____________P -1 21.2497 -45.4206 TS 45 8 326
1870324N19317 1870 31 NA NA NOT_NAMED 1870-11-21 12:00:00 TS 21.6000 -45.7000 main 1978 1978 _____________O -1 21.6000 -45.7000 TS 45 10 317
1870324N19317 1870 31 NA NA NOT_NAMED 1870-11-21 15:00:00 TS 22.0001 -46.1623 main 1997 1997 _____________P -1 22.0001 -46.1623 TS 45 12 311
1870324N19317 1870 31 NA NA NOT_NAMED 1870-11-21 18:00:00 TS 22.4000 -46.7000 main 2006 1973 _____________O -1 22.4000 -46.7000 TS 45 13 307
1870324N19317 1870 31 NA NA NOT_NAMED 1870-11-21 21:00:00 TS 22.7577 -47.2524 main 1965 1932 _____________P -1 22.7577 -47.2524 TS 45 12 307
1870324N19317 1870 31 NA NA NOT_NAMED 1870-11-22 00:00:00 TS 23.1000 -47.7000 main 1932 1917 _____________O -1 23.1000 -47.7000 TS 45 9 318
1870324N19317 1870 31 NA NA NOT_NAMED 1870-11-22 03:00:00 TS 23.4497 -47.9253 main 1919 1912 _____________P -1 23.4497 -47.9253 TS 45 8 339
1870324N19317 1870 31 NA NA NOT_NAMED 1870-11-22 06:00:00 TS 23.8000 -48.0000 main 1920 1920 _____________O -1 23.8000 -48.0000 TS 45 7 350
1870324N19317 1870 31 NA NA NOT_NAMED 1870-11-22 09:00:00 TS 24.1724 -48.0525 main 1923 1923 _____________P -1 24.1724 -48.0525 TS 47 7 0
1870324N19317 1870 31 NA NA NOT_NAMED 1870-11-22 12:00:00 TS 24.5000 -48.0000 main 1942 1942 _____________O -1 24.5000 -48.0000 TS 50 6 20
1870324N19317 1870 31 NA NA NOT_NAMED 1870-11-22 15:00:00 TS 24.7225 -47.8300 main 1968 1968 _____________P -1 24.7225 -47.8300 TS 50 5 42
1870324N19317 1870 31 NA NA NOT_NAMED 1870-11-22 18:00:00 TS 24.9000 -47.6000 main 1994 1994 _____________O -1 24.9000 -47.6000 TS 50 5 46
1870324N19317 1870 31 NA NA NOT_NAMED 1870-11-22 21:00:00 TS 25.1000 -47.3999 main 2020 2020 _____________P -1 25.1000 -47.3999 TS 50 5 42
1870324N19317 1870 31 NA NA NOT_NAMED 1870-11-23 00:00:00 TS 25.3000 -47.2000 main 2046 2046 _____________O -1 25.3000 -47.2000 TS 50 6 42
1870324N19317 1870 31 NA NA NOT_NAMED 1870-11-23 03:00:00 TS 25.5075 -46.9925 main 2072 2072 _____________P -1 25.5075 -46.9925 TS 50 5 42
1870324N19317 1870 31 NA NA NOT_NAMED 1870-11-23 06:00:00 TS 25.7000 -46.8000 main 2098 2098 _____________O -1 25.7000 -46.8000 TS 50 3 52
1870324N19317 1870 31 NA NA NOT_NAMED 1870-11-23 09:00:00 TS 25.7146 -46.7005 main 2108 2108 _____________P -1 25.7146 -46.7005 TS 52 4 42
1870324N19317 1870 31 NA NA NOT_NAMED 1870-11-23 12:00:00 TS 26.0000 -46.5000 main 2138 2138 _____________O -1 26.0000 -46.5000 TS 55 14 27
1870324N19317 1870 31 NA NA NOT_NAMED 1870-11-23 15:00:00 TS 26.9655 -46.0044 main 2223 2166 _____________P -1 26.9655 -46.0044 TS 55 24 24
1870324N19317 1870 31 NA NA NOT_NAMED 1870-11-23 18:00:00 TS 28.2000 -45.4000 main 2158 2052 _____________O -1 28.2000 -45.4000 TS 55 26 22
1870324N19317 1870 31 NA NA NOT_NAMED 1870-11-23 21:00:00 TS 29.3695 -44.9003 main 2045 1966 _____________P -1 29.3695 -44.9003 TS 57 23 23
1870324N19317 1870 31 NA NA NOT_NAMED 1870-11-24 00:00:00 TS 30.3000 -44.4000 main 1966 1937 _____________O -1 30.3000 -44.4000 TS 60 16 34
1870324N19317 1870 31 NA NA NOT_NAMED 1870-11-24 03:00:00 TS 30.7124 -43.8481 main 1944 1934 _____________P -1 30.7124 -43.8481 TS 60 11 58
1870324N19317 1870 31 NA NA NOT_NAMED 1870-11-24 06:00:00 TS 30.9000 -43.3000 main 1942 1937 _____________O -1 30.9000 -43.3000 TS 60 10 67
1870324N19317 1870 31 NA NA NOT_NAMED 1870-11-24 09:00:00 TS 31.1022 -42.7978 main 1941 1920 _____________P -1 31.1022 -42.7978 TS 62 10 55
1870324N19317 1870 31 NA NA NOT_NAMED 1870-11-24 12:00:00 TS 31.5000 -42.3000 main 1920 1862 _____________O -1 31.5000 -42.3000 HU 65 15 36
1870324N19317 1870 31 NA NA NOT_NAMED 1870-11-24 15:00:00 TS 32.3525 -41.7509 main 1852 1788 _____________P -1 32.3525 -41.7509 HU 65 21 26
1870324N19317 1870 31 NA NA NOT_NAMED 1870-11-24 18:00:00 TS 33.4000 -41.2000 main 1783 1723 _____________O -1 33.4000 -41.2000 HU 65 22 24
1870324N19317 1870 31 NA NA NOT_NAMED 1870-11-24 21:00:00 TS 34.3496 -40.6984 main 1723 1661 _____________P -1 34.3496 -40.6984 HU 65 21 23
1870324N19317 1870 31 NA NA NOT_NAMED 1870-11-25 00:00:00 TS 35.3000 -40.2000 main 1658 1607 _____________O -1 35.3000 -40.2000 HU 65 21 24
1870324N19317 1870 31 NA NA NOT_NAMED 1870-11-25 03:00:00 TS 36.2573 -39.6566 main 1598 1561 _____________P -1 36.2573 -39.6566 HU 65 21 25
1870324N19317 1870 31 NA NA NOT_NAMED 1870-11-25 06:00:00 TS 37.2000 -39.1000 main 1559 1519 _____________O -1 37.2000 -39.1000 HU 65 21 24
1870324N19317 1870 31 NA NA NOT_NAMED 1870-11-25 09:00:00 TS 38.1667 -38.5791 main 1511 1490 _____________P -1 38.1667 -38.5791 HU 65 20 26
1870324N19317 1870 31 NA NA NOT_NAMED 1870-11-25 12:00:00 TS 39.0000 -38.0000 main 1490 1488 _____________O -1 39.0000 -38.0000 HU 65 17 36
1870324N19317 1870 31 NA NA NOT_NAMED 1870-11-25 15:00:00 TS 39.5367 -37.3138 main 1502 1495 _____________P -1 39.5367 -37.3138 HU 65 15 49
1870324N19317 1870 31 NA NA NOT_NAMED 1870-11-25 18:00:00 TS 40.0000 -36.5000 main 1523 1523 _____________O -1 40.0000 -36.5000 HU 65 16 47
1870324N19317 1870 31 NA NA NOT_NAMED 1870-11-25 21:00:00 TS 40.6247 -35.7845 main 1535 1535 _____________P -1 40.6247 -35.7845 HU 65 20 49
1870324N19317 1870 31 NA NA NOT_NAMED 1870-11-26 00:00:00 TS 41.3000 -34.5000 main 1584 1584 _____________O -1 41.3000 -34.5000 HU 65 30 69
1870324N19317 1870 31 NA NA NOT_NAMED 1870-11-26 03:00:00 TS 41.7217 -32.0282 main 1741 1626 _____________P -1 41.7217 -32.0282 HU 60 42 73
1870324N19317 1870 31 NA NA NOT_NAMED 1870-11-26 06:00:00 ET 42.5000 -29.1000 main 1608 1360 _____________O -1 42.5000 -29.1000 EX 55 50 60
1870324N19317 1870 31 NA NA NOT_NAMED 1870-11-26 09:00:00 ET 44.2241 -26.0604 main 1352 1151 _____________P -1 44.2241 -26.0604 EX 52 54 46
1870324N19317 1870 31 NA NA NOT_NAMED 1870-11-26 12:00:00 ET 46.3000 -23.7000 main 1139 984 _____________O -1 46.3000 -23.7000 EX 50 45 28
1870324N19317 1870 31 NA NA NOT_NAMED 1870-11-26 15:00:00 ET 48.2155 -23.0307 main 979 933 _____________P -1 48.2155 -23.0307 EX 47 37 2
1870324N19317 1870 31 NA NA NOT_NAMED 1870-11-26 18:00:00 ET 50.0000 -23.5000 main 932 _____________O -1 50.0000 -23.5000 EX 45 36 350

IBTrACS Databaseについて

本データベースは、米国NOAAが公開する1842年以降の世界の熱帯低気圧のベストトラックデータアーカイブInternational Best Track Archive for Climate Stewardship (IBTrACS)を、ウェブで閲覧しやすい形式に変換したものです。

最終更新日:2021-11-26